Terminal Aerodrome Forecast
Issued by NWS Newport/Morehead City, NC

Home | Current Version | Previous Version | Text Only | Print | Product List | Glossary On
Versions: 1 2 3 4 5 6 7 8 9 10 11 12 13 14 15 16 17 18 19 20 21 22 23
000
FTUS42 KMHX 031756
TAFEWN
TAF
KEWN 031756Z 0318/0418 15005KT P6SM SCT035
     FM040600 00000KT 4SM BR SCT250
     FM040800 00000KT 2SM BR BKN005
     FM041300 03005KT P6SM SCT050=

USA.gov is the U.S. government's official web portal to all federal, state and local government web resources and services.